LFSG/EPL METAR and TAF weather

Enter ICAO airport designator
Station Type Date Time Source
LFSG METAR 2020/07/15 08:00 UTC NOAA

LFSG 150800Z AUTO 25006KT 9999 FEW010/// OVC082/// ///TCU 16/14 Q1015


Station Type Date Time Source
LFSG Decoded METAR 2020/07/15 08:00 UTC NOAA

Station name not available
Jul 15, 2020 - 04:00 AM EDT / 2020.07.15 0800 UTC
Wind: from the WSW (250 degrees) at 7 MPH (6 KT):0
Visibility: greater than 7 mile(s):0
Sky conditions: overcast
Weather: Towering cumulus clouds observed
Temperature: 60 F (16 C)
Dew Point: 57 F (14 C)
Relative Humidity: 87%
Pressure (altimeter): 29.97 in. Hg (1015 hPa)
ob: LFSG 150800Z AUTO 25006KT 9999 FEW010/// OVC082/// ///TCU 16/14 Q1015
cycle: 8

Station Type Date Time Source
LFSG TAF UTC NOAA

Error!

Example: see airport list